Time;durP1;ratioP1;P1;durP2;ratioP2;P2;SDS_P1;SDS_P2;PMS_P1;PMS_P2;Temp;Humidity;BMP_temperature;BMP_pressure;BME280_temperature;BME280_humidity;BME280_pressure;Samples;Min_cycle;Max_cycle;Signal;HPM_P1;HPM_P2
2021/09/02 00:00:22;;;;;;;10.30;5.70;;;;;;;13.22;100.00;98826.67;1781104;80;20896;-62
2021/09/02 00:02:48;;;;;;;10.88;7.58;;;;;;;13.19;100.00;98839.38;1762625;81;21101;-62
2021/09/02 00:05:15;;;;;;;10.03;6.90;;;;;;;13.14;100.00;98834.06;1762148;81;20944;-62
2021/09/02 00:07:41;;;;;;;10.28;7.08;;;;;;;13.15;100.00;98831.06;1768418;80;20955;-62
2021/09/02 00:10:10;;;;;;;10.32;7.22;;;;;;;13.12;100.00;98835.68;1775236;80;20921;-62
2021/09/02 00:12:38;;;;;;;8.58;6.85;;;;;;;13.16;100.00;98834.58;1794042;79;20818;-63
2021/09/02 00:15:06;;;;;;;10.20;6.60;;;;;;;13.16;100.00;98832.68;1761165;81;21184;-62
2021/09/02 00:17:35;;;;;;;9.90;6.28;;;;;;;13.13;100.00;98838.66;1794384;80;20860;-62
2021/09/02 00:20:02;;;;;;;8.85;6.95;;;;;;;13.13;100.00;98837.83;1794536;80;20825;-62
2021/09/02 00:22:29;;;;;;;10.10;7.97;;;;;;;13.14;100.00;98843.48;1766409;81;20864;-63
2021/09/02 00:24:55;;;;;;;7.97;6.87;;;;;;;13.10;100.00;98837.86;1793893;80;20960;-63
2021/09/02 00:27:22;;;;;;;10.20;7.58;;;;;;;13.09;100.00;98841.10;1761295;81;21150;-63
2021/09/02 00:29:48;;;;;;;12.75;7.55;;;;;;;13.07;100.00;98841.13;1794457;80;21315;-62
2021/09/02 00:32:17;;;;;;;12.07;7.58;;;;;;;13.06;100.00;98847.63;1766185;81;20912;-63
2021/09/02 00:34:44;;;;;;;12.15;7.08;;;;;;;13.00;100.00;98846.86;1794000;80;20948;-62
2021/09/02 00:37:10;;;;;;;8.75;7.05;;;;;;;13.01;100.00;98844.44;1760982;81;20861;-62
2021/09/02 00:39:37;;;;;;;11.57;6.72;;;;;;;12.99;100.00;98841.78;1794492;80;21193;-62
2021/09/02 00:42:05;;;;;;;7.70;6.10;;;;;;;12.99;100.00;98840.43;1766066;81;20920;-62
2021/09/02 00:44:45;;;;;;;7.47;6.67;;;;;;;12.98;100.00;98846.34;1794808;80;21331;-62
2021/09/02 00:47:12;;;;;;;10.78;6.45;;;;;;;12.95;100.00;98848.81;1794668;79;20901;-63
2021/09/02 00:49:40;;;;;;;11.70;6.80;;;;;;;12.94;100.00;98856.65;1794598;79;20912;-62
2021/09/02 00:52:22;;;;;;;14.65;8.25;;;;;;;12.92;100.00;98846.16;1794663;80;21102;-62
2021/09/02 00:54:54;;;;;;;7.20;6.47;;;;;;;12.93;100.00;98850.44;1794548;79;20892;-63
2021/09/02 00:57:24;;;;;;;10.35;6.50;;;;;;;12.92;100.00;98856.13;1794755;80;21316;-62
2021/09/02 00:59:51;;;;;;;10.18;6.58;;;;;;;12.90;100.00;98856.41;1794265;80;20896;-62
2021/09/02 01:02:20;;;;;;;7.25;6.45;;;;;;;12.90;100.00;98855.61;1794541;80;20845;-65
2021/09/02 01:04:47;;;;;;;11.93;7.03;;;;;;;12.90;100.00;98855.06;1793698;80;21126;-63
2021/09/02 01:07:13;;;;;;;7.53;6.78;;;;;;;12.93;100.00;98860.41;1794090;79;21048;-62
2021/09/02 01:09:42;;;;;;;10.15;6.92;;;;;;;12.98;100.00;98865.74;1765381;81;21338;-62
2021/09/02 01:12:32;;;;;;;13.43;7.17;;;;;;;13.02;100.00;98860.84;1796756;80;21438;-63
2021/09/02 01:15:05;;;;;;;10.23;6.60;;;;;;;13.06;100.00;98862.44;1796623;80;20821;-62
2021/09/02 01:17:32;;;;;;;16.87;6.80;;;;;;;13.06;100.00;98867.28;1796996;80;21101;-62
2021/09/02 01:19:59;;;;;;;8.83;5.67;;;;;;;13.08;100.00;98866.45;1797161;80;21340;-62
2021/09/02 01:22:28;;;;;;;9.93;7.00;;;;;;;13.08;100.00;98869.15;1783481;80;20861;-63
2021/09/02 01:24:58;;;;;;;9.65;7.00;;;;;;;13.09;100.00;98869.39;1783655;80;20971;-63
2021/09/02 01:27:26;;;;;;;11.53;6.58;;;;;;;13.12;100.00;98872.61;1783400;80;21458;-62
2021/09/02 01:29:57;;;;;;;8.83;6.42;;;;;;;13.16;100.00;98868.26;1783343;80;21120;-64
2021/09/02 01:32:27;;;;;;;8.68;6.58;;;;;;;13.17;100.00;98869.30;1783460;80;20963;-62
2021/09/02 01:34:55;;;;;;;7.92;6.10;;;;;;;13.16;100.00;98862.88;1756896;80;21465;-62
2021/09/02 01:37:25;;;;;;;11.75;6.40;;;;;;;13.17;100.00;98866.61;1783656;80;20983;-61
2021/09/02 01:39:51;;;;;;;15.43;6.85;;;;;;;13.18;100.00;98860.66;1782274;80;20889;-62
2021/09/02 01:42:19;;;;;;;11.63;6.80;;;;;;;13.17;100.00;98860.42;1783506;80;21108;-62
2021/09/02 01:44:45;;;;;;;11.35;6.75;;;;;;;13.14;100.00;98859.11;1783239;80;20912;-61
2021/09/02 01:47:24;;;;;;;10.00;6.50;;;;;;;13.14;100.00;98867.19;1783340;80;20837;-62
2021/09/02 01:49:51;;;;;;;12.55;6.20;;;;;;;13.11;100.00;98854.84;1783511;80;20896;-63
2021/09/02 01:52:19;;;;;;;12.58;5.78;;;;;;;13.08;100.00;98862.93;1783569;80;20893;-62
2021/09/02 01:54:47;;;;;;;11.35;6.78;;;;;;;13.06;100.00;98869.17;1783523;79;20948;-62
2021/09/02 01:57:15;;;;;;;9.13;6.33;;;;;;;13.03;100.00;98875.94;1783373;80;21458;-64
2021/09/02 01:59:42;;;;;;;10.33;6.80;;;;;;;13.05;100.00;98870.25;1783940;80;20861;-63
2021/09/02 02:02:09;;;;;;;15.18;6.75;;;;;;;13.04;100.00;98872.14;1783225;80;21050;-63
2021/09/02 02:04:35;;;;;;;9.48;5.95;;;;;;;13.02;100.00;98868.13;1783490;80;20963;-62
2021/09/02 02:07:02;;;;;;;12.23;6.28;;;;;;;13.02;100.00;98874.31;1783471;80;21090;-62
2021/09/02 02:09:28;;;;;;;8.58;6.50;;;;;;;12.99;100.00;98872.75;1783420;80;21280;-62
2021/09/02 02:11:55;;;;;;;12.15;6.60;;;;;;;12.93;100.00;98872.53;1783605;80;20857;-61
2021/09/02 02:14:22;;;;;;;8.28;6.08;;;;;;;12.90;100.00;98872.56;1783468;80;20853;-62
2021/09/02 02:16:49;;;;;;;18.05;6.20;;;;;;;12.86;100.00;98875.04;1783842;80;21774;-62
2021/09/02 02:19:16;;;;;;;15.10;7.65;;;;;;;12.82;100.00;98869.95;1783394;80;21093;-62
2021/09/02 02:21:43;;;;;;;10.00;6.20;;;;;;;12.78;100.00;98863.52;1796435;80;20849;-62
2021/09/02 02:24:10;;;;;;;15.05;6.92;;;;;;;12.74;100.00;98868.41;1796598;80;20806;-62
2021/09/02 02:26:36;;;;;;;8.15;5.55;;;;;;;12.69;100.00;98878.71;1797074;80;21442;-62
2021/09/02 02:29:03;;;;;;;13.53;6.33;;;;;;;12.69;100.00;98876.54;1783632;80;21393;-63
2021/09/02 02:31:29;;;;;;;9.15;5.95;;;;;;;12.68;100.00;98873.59;1783750;80;21012;-62
2021/09/02 02:33:56;;;;;;;9.50;6.22;;;;;;;12.68;100.00;98877.64;1779660;80;20904;-62
2021/09/02 02:36:22;;;;;;;9.48;6.37;;;;;;;12.63;100.00;98855.05;1769017;80;20944;-63
2021/09/02 02:38:49;;;;;;;10.00;5.60;;;;;;;12.60;100.00;98870.44;1780124;80;20864;-62
2021/09/02 02:41:15;;;;;;;10.00;6.33;;;;;;;12.59;100.00;98875.57;1767808;81;20860;-62
2021/09/02 02:43:43;;;;;;;10.98;6.75;;;;;;;12.58;100.00;98873.16;1767471;81;21054;-62
2021/09/02 02:46:11;;;;;;;9.58;7.45;;;;;;;12.56;100.00;98872.63;1766962;81;20820;-62
2021/09/02 02:48:38;;;;;;;11.90;7.28;;;;;;;12.54;100.00;98879.66;1773308;80;20901;-62
2021/09/02 02:51:06;;;;;;;9.65;5.75;;;;;;;12.52;100.00;98879.65;1783671;79;20881;-62
2021/09/02 02:53:32;;;;;;;12.43;5.87;;;;;;;12.46;100.00;98876.21;1783567;80;20896;-61
2021/09/02 02:55:59;;;;;;;8.60;5.83;;;;;;;12.41;100.00;98874.36;1783753;80;21122;-62
2021/09/02 02:58:26;;;;;;;12.07;5.95;;;;;;;12.35;100.00;98876.84;1783315;80;21039;-62
2021/09/02 03:00:52;;;;;;;9.60;6.28;;;;;;;12.34;100.00;98876.57;1783711;80;20861;-62
2021/09/02 03:03:19;;;;;;;10.80;5.95;;;;;;;12.34;100.00;98878.47;1783746;80;20901;-63
2021/09/02 03:05:45;;;;;;;10.93;6.10;;;;;;;12.25;100.00;98878.28;1783342;80;20980;-63
2021/09/02 03:08:12;;;;;;;6.87;5.83;;;;;;;12.23;100.00;98883.13;1782216;80;21125;-62
2021/09/02 03:10:40;;;;;;;7.62;5.78;;;;;;;12.16;100.00;98878.06;1780595;80;20849;-62
2021/09/02 03:13:06;;;;;;;12.03;5.67;;;;;;;12.14;100.00;98881.57;1780854;80;20995;-62
2021/09/02 03:15:33;;;;;;;12.58;6.90;;;;;;;12.10;100.00;98879.72;1780498;80;20858;-62
2021/09/02 03:18:00;;;;;;;8.83;6.12;;;;;;;12.11;100.00;98882.14;1780349;80;20865;-63
2021/09/02 03:20:28;;;;;;;10.72;6.00;;;;;;;12.11;100.00;98880.00;1780357;80;21340;-62
2021/09/02 03:22:55;;;;;;;13.30;6.05;;;;;;;12.14;100.00;98888.84;1780728;80;20917;-63
2021/09/02 03:25:21;;;;;;;8.70;5.87;;;;;;;12.13;100.00;98893.97;1780566;80;20897;-62
2021/09/02 03:27:48;;;;;;;7.53;6.03;;;;;;;12.16;100.00;98894.20;1790767;80;21383;-62
2021/09/02 03:30:14;;;;;;;8.25;6.00;;;;;;;12.15;100.00;98893.95;1790685;80;20912;-62
2021/09/02 03:32:41;;;;;;;9.05;5.90;;;;;;;12.16;100.00;98902.83;1793933;80;21077;-62
2021/09/02 03:35:08;;;;;;;12.40;6.03;;;;;;;12.13;100.00;98898.01;1793708;80;21434;-62
2021/09/02 03:37:35;;;;;;;10.63;6.78;;;;;;;12.16;100.00;98898.23;1780661;80;21359;-62
2021/09/02 03:40:01;;;;;;;10.72;6.10;;;;;;;12.14;100.00;98907.12;1780532;80;20957;-63
2021/09/02 03:42:27;;;;;;;16.10;6.72;;;;;;;12.12;100.00;98901.22;1780708;80;20877;-62
2021/09/02 03:44:56;;;;;;;11.43;6.55;;;;;;;12.10;100.00;98912.00;1790784;80;20869;-65
2021/09/02 03:47:23;;;;;;;7.83;5.92;;;;;;;12.08;100.00;98906.09;1757913;81;20897;-64
2021/09/02 03:49:49;;;;;;;9.53;6.30;;;;;;;12.09;100.00;98907.72;1790781;80;20857;-65
2021/09/02 03:52:15;;;;;;;11.97;6.35;;;;;;;12.05;100.00;98896.69;1794246;80;20885;-64
2021/09/02 03:54:42;;;;;;;11.85;6.40;;;;;;;12.06;100.00;98911.77;1793784;80;21458;-65
2021/09/02 03:57:09;;;;;;;14.58;7.35;;;;;;;12.05;100.00;98908.80;1780615;80;21135;-64
2021/09/02 03:59:35;;;;;;;10.95;7.72;;;;;;;12.06;100.00;98910.97;1780417;80;20865;-65
2021/09/02 04:02:02;;;;;;;15.08;6.53;;;;;;;12.09;100.00;98915.23;1780319;80;20861;-65
2021/09/02 04:04:28;;;;;;;10.48;6.62;;;;;;;12.08;100.00;98910.95;1780438;80;20905;-65
2021/09/02 04:06:55;;;;;;;8.95;6.12;;;;;;;12.08;100.00;98906.91;1780256;80;20913;-65
2021/09/02 04:09:21;;;;;;;10.98;6.35;;;;;;;12.07;100.00;98917.39;1782261;80;21131;-65
2021/09/02 04:11:49;;;;;;;8.23;6.12;;;;;;;12.10;100.00;98912.83;1783715;80;21312;-64
2021/09/02 04:14:16;;;;;;;9.48;5.87;;;;;;;12.13;100.00;98917.64;1783203;80;20897;-65
2021/09/02 04:16:43;;;;;;;10.72;6.40;;;;;;;12.06;100.00;98906.39;1783621;80;20935;-62
2021/09/02 04:19:09;;;;;;;11.53;6.15;;;;;;;12.15;100.00;98920.03;1796643;80;20853;-62
2021/09/02 04:21:36;;;;;;;7.65;5.47;;;;;;;12.17;100.00;98921.91;1756873;81;21210;-63
2021/09/02 04:24:04;;;;;;;7.67;6.53;;;;;;;12.14;100.00;98921.13;1774693;80;20864;-62
2021/09/02 04:26:30;;;;;;;10.78;5.45;;;;;;;12.12;100.00;98920.05;1746634;81;21343;-62
2021/09/02 04:28:56;;;;;;;10.98;6.75;;;;;;;12.14;100.00;98920.58;1774781;81;20900;-62
2021/09/02 04:31:24;;;;;;;11.25;5.97;;;;;;;12.15;100.00;98918.69;1774728;81;20951;-62
2021/09/02 04:33:50;;;;;;;10.18;6.28;;;;;;;12.14;100.00;98921.92;1774884;81;21098;-62
2021/09/02 04:36:16;;;;;;;14.10;6.83;;;;;;;12.16;100.00;98925.14;1774829;80;21615;-62
2021/09/02 04:38:44;;;;;;;12.50;5.60;;;;;;;12.17;100.00;98924.59;1774123;81;20938;-63
2021/09/02 04:41:11;;;;;;;9.00;5.50;;;;;;;12.25;100.00;98927.23;1755474;80;21058;-65
2021/09/02 04:43:37;;;;;;;14.83;5.75;;;;;;;12.31;100.00;98932.86;1774350;81;20959;-66
2021/09/02 04:46:04;;;;;;;10.28;5.62;;;;;;;12.35;100.00;98931.22;1774783;81;21668;-64
2021/09/02 04:48:30;;;;;;;9.70;5.72;;;;;;;12.41;100.00;98933.57;1774308;81;21015;-63
2021/09/02 04:50:57;;;;;;;10.10;5.85;;;;;;;12.50;100.00;98935.13;1773408;80;20932;-63
2021/09/02 04:53:23;;;;;;;11.00;6.05;;;;;;;12.49;100.00;98937.55;1789568;79;20959;-63
2021/09/02 04:55:50;;;;;;;9.50;5.60;;;;;;;12.49;100.00;98941.58;1780536;79;21001;-65
2021/09/02 04:58:16;;;;;;;12.47;5.83;;;;;;;12.54;100.00;98939.40;1795414;79;21125;-64
2021/09/02 05:00:43;;;;;;;10.58;6.25;;;;;;;12.49;100.00;98936.20;1775882;80;21464;-63
2021/09/02 05:03:10;;;;;;;10.75;6.53;;;;;;;12.49;100.00;98941.58;1775732;80;20954;-66
2021/09/02 05:05:36;;;;;;;14.55;6.10;;;;;;;12.49;100.00;98938.89;1775718;80;20982;-63
2021/09/02 05:08:04;;;;;;;12.40;6.15;;;;;;;12.53;100.00;98935.11;1775982;80;21060;-64
2021/09/02 05:10:31;;;;;;;12.90;6.20;;;;;;;12.55;100.00;98936.44;1775555;80;21348;-64
2021/09/02 05:12:58;;;;;;;9.83;5.87;;;;;;;12.58;100.00;98940.45;1773781;80;21104;-63
2021/09/02 05:15:25;;;;;;;16.35;6.95;;;;;;;12.59;100.00;98946.08;1779267;80;21406;-62
2021/09/02 05:17:51;;;;;;;10.38;6.55;;;;;;;12.64;100.00;98955.47;1770834;80;20892;-64
2021/09/02 05:20:19;;;;;;;8.35;5.90;;;;;;;12.65;100.00;98951.16;1778791;79;20953;-64
2021/09/02 05:22:46;;;;;;;14.58;6.10;;;;;;;12.66;100.00;98945.22;1781512;80;21079;-64
2021/09/02 05:25:13;;;;;;;15.10;8.38;;;;;;;12.67;100.00;98951.44;1753930;80;21434;-63
2021/09/02 05:27:40;;;;;;;11.60;7.90;;;;;;;12.74;100.00;98958.62;1768482;79;20964;-63
2021/09/02 05:30:12;;;;;;;12.13;6.80;;;;;;;12.72;100.00;98933.89;1783966;79;20975;-64
2021/09/02 05:32:39;;;;;;;8.40;5.30;;;;;;;12.72;100.00;98950.84;1780945;80;20849;-65
2021/09/02 05:35:08;;;;;;;13.85;5.80;;;;;;;12.74;100.00;98950.54;1796377;80;21752;-64
2021/09/02 05:37:35;;;;;;;13.13;5.50;;;;;;;12.77;100.00;98961.56;1742308;80;20908;-63
2021/09/02 05:40:03;;;;;;;9.95;5.58;;;;;;;12.79;100.00;98958.60;1794103;79;20957;-63
2021/09/02 05:42:30;;;;;;;14.20;5.78;;;;;;;12.79;100.00;98959.40;1796821;79;26498;-64
2021/09/02 05:44:57;;;;;;;8.90;6.03;;;;;;;12.82;100.00;98962.06;1794606;79;21444;-64
2021/09/02 05:47:24;;;;;;;8.75;5.35;;;;;;;12.80;100.00;98965.03;1796681;80;21122;-63
2021/09/02 05:49:51;;;;;;;7.58;5.67;;;;;;;12.78;100.00;98968.55;1788954;80;21422;-64
2021/09/02 05:52:17;;;;;;;14.98;5.62;;;;;;;13.06;100.00;98959.42;1767357;81;21470;-64
2021/09/02 05:54:44;;;;;;;11.25;5.17;;;;;;;13.58;100.00;98965.91;1796191;80;20966;-63
2021/09/02 05:57:11;;;;;;;9.83;5.42;;;;;;;13.90;100.00;98973.32;1796441;80;20955;-63
2021/09/02 05:59:38;;;;;;;10.18;5.33;;;;;;;13.98;100.00;98982.66;1763344;81;21141;-64
2021/09/02 06:02:04;;;;;;;14.47;4.55;;;;;;;14.01;100.00;98977.23;1796518;80;20983;-68
2021/09/02 06:04:31;;;;;;;11.38;4.90;;;;;;;13.89;100.00;98974.42;1762972;81;20946;-67
2021/09/02 06:06:57;;;;;;;8.00;4.70;;;;;;;14.04;100.00;98980.72;1795805;78;20923;-65
2021/09/02 06:09:24;;;;;;;7.60;4.45;;;;;;;13.94;100.00;98983.80;1761219;81;20948;-63
2021/09/02 06:11:50;;;;;;;8.35;4.22;;;;;;;13.99;100.00;98978.06;1790892;80;21115;-63
2021/09/02 06:14:17;;;;;;;8.20;4.28;;;;;;;14.32;100.00;98988.41;1757870;81;21384;-63
2021/09/02 06:16:45;;;;;;;9.13;4.28;;;;;;;14.68;100.00;98991.97;1790782;80;20900;-63
2021/09/02 06:19:12;;;;;;;6.20;4.25;;;;;;;14.72;100.00;98983.52;1757821;81;21355;-65
2021/09/02 06:21:39;;;;;;;11.78;4.40;;;;;;;14.64;100.00;99003.89;1791152;79;20888;-64
2021/09/02 06:24:05;;;;;;;11.93;3.65;;;;;;;15.00;100.00;99004.68;1757951;81;21121;-66
2021/09/02 06:26:32;;;;;;;7.80;3.90;;;;;;;14.89;100.00;99004.59;1790882;80;20840;-63
2021/09/02 06:28:59;;;;;;;7.05;4.60;;;;;;;14.64;100.00;99016.60;1757883;81;20944;-64
2021/09/02 06:31:25;;;;;;;10.20;4.60;;;;;;;14.43;100.00;99001.20;1790807;79;20884;-63
2021/09/02 06:33:52;;;;;;;12.88;5.65;;;;;;;14.55;100.00;99014.58;1757914;81;21356;-63
2021/09/02 06:36:20;;;;;;;13.38;6.65;;;;;;;14.84;100.00;99020.33;1790717;79;21080;-65
2021/09/02 06:38:47;;;;;;;15.55;8.23;;;;;;;14.85;100.00;99011.14;1757947;81;21016;-66
2021/09/02 06:41:13;;;;;;;8.73;5.40;;;;;;;14.99;100.00;99005.23;1790725;80;20852;-64
2021/09/02 06:43:40;;;;;;;10.95;6.35;;;;;;;14.96;100.00;99019.31;1757914;81;20900;-64
2021/09/02 06:46:07;;;;;;;11.05;4.83;;;;;;;15.16;100.00;99026.30;1790910;80;21429;-64
2021/09/02 06:48:35;;;;;;;;;;;;;;;14.85;100.00;99023.30;1762161;81;21414;-63
2021/09/02 06:51:01;;;;;;;10.70;4.22;;;;;;;14.95;95.71;99019.63;1775372;80;20387;-64
2021/09/02 06:53:28;;;;;;;8.48;3.70;;;;;;;14.47;96.25;99032.73;1775308;80;21387;-65
2021/09/02 06:55:55;;;;;;;8.48;5.35;;;;;;;14.41;95.07;99040.67;1775017;80;20956;-65
2021/09/02 06:58:21;;;;;;;6.85;4.28;;;;;;;14.51;94.07;99041.87;1775244;80;20857;-62
2021/09/02 07:00:48;;;;;;;6.50;3.22;;;;;;;14.89;93.90;99016.19;1775264;80;21090;-63
2021/09/02 07:03:14;;;;;;;8.58;3.83;;;;;;;15.12;93.86;99042.06;1775316;80;20929;-64
2021/09/02 07:05:41;;;;;;;12.05;3.75;;;;;;;15.45;90.89;99033.35;1775165;80;20894;-65
2021/09/02 07:08:07;;;;;;;13.03;3.70;;;;;;;15.75;87.16;99029.84;1775272;79;20929;-66
2021/09/02 07:10:36;;;;;;;;;;;;;;;15.72;82.63;99029.89;1780051;80;21006;-64
2021/09/02 07:13:04;;;;;;;9.48;3.60;;;;;;;15.63;81.65;99028.98;1771817;81;21184;-65
2021/09/02 07:15:31;;;;;;;;;;;;;;;15.58;83.30;99046.11;1799210;80;20888;-63
2021/09/02 07:17:58;;;;;;;7.42;2.87;;;;;;;15.49;87.57;99038.42;1788787;80;20078;-64
2021/09/02 07:20:25;;;;;;;12.18;2.95;;;;;;;15.88;84.62;99041.80;1768520;81;20928;-65
2021/09/02 07:22:51;;;;;;;8.10;3.17;;;;;;;16.15;81.40;99041.77;1796557;78;20845;-66
2021/09/02 07:25:19;;;;;;;4.90;2.87;;;;;;;16.12;79.33;99030.19;1796715;78;21128;-66
2021/09/02 07:27:46;;;;;;;7.92;3.45;;;;;;;16.35;80.45;99043.79;1760450;81;20976;-64
2021/09/02 07:30:12;;;;;;;8.03;4.00;;;;;;;16.50;79.45;99038.03;1796574;80;20885;-65
2021/09/02 07:32:39;;;;;;;29.50;17.10;;;;;;;16.50;79.45;99038.03;1763841;81;20837;-64
2021/09/02 07:35:07;;;;;;;7.95;4.87;;;;;;;15.35;84.24;99034.89;1796838;80;20935;-65
2021/09/02 07:37:35;;;;;;;5.60;3.20;;;;;;;15.35;84.24;99034.89;1763461;81;20928;-62
2021/09/02 07:40:02;;;;;;;11.60;4.45;;;;;;;15.12;81.91;99027.19;1796672;80;21362;-64
2021/09/02 07:42:29;;;;;;;6.15;2.83;;;;;;;15.77;83.46;99041.97;1763643;81;20956;-64
2021/09/02 07:44:58;;;;;;;;;;;;;;;16.15;79.76;99039.61;1799497;80;21343;-65
2021/09/02 07:47:24;;;;;;;7.58;3.30;;;;;;;16.18;76.88;99045.77;1796865;80;20422;-65
2021/09/02 07:49:53;;;;;;;14.53;3.70;;;;;;;16.38;76.92;99048.59;1763880;81;20825;-64
2021/09/02 07:52:19;;;;;;;13.83;3.47;;;;;;;16.45;73.10;98998.31;1796692;80;20844;-63
2021/09/02 07:54:46;;;;;;;7.42;3.17;;;;;;;16.37;77.02;99053.77;1763557;81;20904;-63
2021/09/02 07:57:12;;;;;;;5.37;2.87;;;;;;;16.20;78.22;99044.92;1796742;80;20912;-63
2021/09/02 07:59:40;;;;;;;9.93;3.30;;;;;;;15.99;73.06;99037.20;1763725;81;20904;-63
2021/09/02 08:02:06;;;;;;;6.22;3.10;;;;;;;16.19;74.70;99048.72;1797049;80;21048;-64
2021/09/02 08:04:33;;;;;;;6.80;2.70;;;;;;;15.87;72.39;99043.67;1763774;81;20881;-64
2021/09/02 08:07:07;;;;;;;;;;;;;;;15.40;74.32;99042.91;1799208;78;21031;-65
2021/09/02 08:09:36;;;;;;;5.15;2.62;;;;;;;15.03;78.16;99056.78;1795940;78;20086;-63
2021/09/02 08:12:03;;;;;;;9.25;3.45;;;;;;;14.85;80.52;99052.22;1794007;80;20892;-65
2021/09/02 08:14:32;;;;;;;9.88;3.40;;;;;;;14.60;80.53;99045.28;1794104;78;20801;-63
2021/09/02 08:16:58;;;;;;;7.20;3.20;;;;;;;14.58;80.85;99042.89;1794066;78;21390;-63
2021/09/02 08:19:25;;;;;;;9.00;4.22;;;;;;;14.47;81.79;99050.28;1793899;80;20891;-63
2021/09/02 08:21:51;;;;;;;4.92;3.20;;;;;;;14.85;77.35;99060.33;1793933;80;20865;-62
2021/09/02 08:24:18;;;;;;;5.03;3.15;;;;;;;15.15;76.30;99046.86;1793936;80;21430;-62
2021/09/02 08:26:44;;;;;;;6.55;3.05;;;;;;;15.91;73.73;99066.89;1793842;80;21161;-64
2021/09/02 08:29:12;;;;;;;10.50;3.20;;;;;;;16.09;71.79;99070.03;1793923;80;20836;-62
2021/09/02 08:31:38;;;;;;;6.28;2.65;;;;;;;15.74;72.79;99062.87;1793938;80;20932;-65
2021/09/02 08:34:05;;;;;;;6.72;2.77;;;;;;;15.36;76.04;99052.18;1793988;80;20962;-64
2021/09/02 08:36:32;;;;;;;8.53;3.33;;;;;;;15.22;72.33;99060.25;1793896;80;21354;-63
2021/09/02 08:38:58;;;;;;;8.23;2.87;;;;;;;14.98;72.34;99055.52;1793789;78;21126;-66
2021/09/02 08:41:25;;;;;;;4.33;2.60;;;;;;;14.70;74.69;99054.58;1793955;79;21425;-66
2021/09/02 08:43:53;;;;;;;5.92;2.80;;;;;;;15.06;73.83;99041.31;1794045;80;20876;-65
2021/09/02 08:46:20;;;;;;;9.20;3.20;;;;;;;15.61;68.00;99042.00;1793800;80;20904;-63
2021/09/02 08:48:48;;;;;;;10.63;3.20;;;;;;;15.52;67.83;99047.28;1794054;78;21001;-65
2021/09/02 08:51:15;;;;;;;10.40;2.20;;;;;;;15.75;69.87;99052.84;1793744;80;21418;-65
2021/09/02 08:53:42;;;;;;;5.42;2.50;;;;;;;16.30;66.30;99051.47;1793919;80;20880;-66
2021/09/02 08:56:10;;;;;;;5.53;2.80;;;;;;;16.07;65.00;99048.70;1770284;80;20970;-66
2021/09/02 08:58:38;;;;;;;7.87;3.02;;;;;;;15.46;68.35;99052.55;1761623;80;20853;-62
2021/09/02 09:01:06;;;;;;;4.80;2.62;;;;;;;15.12;69.91;99059.62;1760846;81;20995;-62
2021/09/02 09:03:34;;;;;;;;;;;;;;;15.02;73.86;99055.19;1763664;80;21848;-62
2021/09/02 09:06:06;;;;;;;;;;;;;;;15.06;76.68;99062.14;1706440;81;20087;-61
2021/09/02 09:08:32;;;;;;;6.03;2.58;;;;;;;14.84;76.19;99058.70;1778073;79;20108;-64
2021/09/02 09:11:16;;;;;;;5.08;3.00;;;;;;;14.63;77.93;99061.72;1766432;80;21423;-66
2021/09/02 09:13:45;;;;;;;8.80;3.00;;;;;;;14.68;78.87;99062.20;1739781;81;20989;-66
2021/09/02 09:16:12;;;;;;;6.60;3.02;;;;;;;14.30;77.64;99065.63;1736889;82;21334;-61
2021/09/02 09:18:41;;;;;;;;;;;;;;;14.22;78.51;99051.44;1740051;81;20930;-63
2021/09/02 09:21:15;;;;;;;18.73;3.70;;;;;;;14.23;77.00;99052.23;1743400;82;20212;-62
2021/09/02 09:24:06;;;;;;;6.55;3.25;;;;;;;14.34;79.23;99069.92;1740499;82;20945;-61
2021/09/02 09:26:34;;;;;;;8.10;3.00;;;;;;;14.69;75.42;99059.73;1728643;81;20858;-63
2021/09/02 09:29:05;;;;;;;7.12;2.62;;;;;;;14.81;74.51;99068.20;1741014;81;21130;-61
2021/09/02 09:31:36;;;;;;;7.33;3.98;;;;;;;14.80;73.97;99053.10;1739097;82;20957;-64
2021/09/02 09:34:05;;;;;;;9.95;2.80;;;;;;;14.75;72.35;99051.27;1740872;82;20965;-62
2021/09/02 09:36:38;;;;;;;7.75;3.60;;;;;;;14.94;74.65;99062.59;1740775;82;20910;-64
2021/09/02 09:39:11;;;;;;;5.45;2.90;;;;;;;14.92;74.00;99064.78;1740811;82;20970;-62
2021/09/02 09:41:42;;;;;;;6.25;3.05;;;;;;;15.00;75.22;99058.73;1740789;81;21130;-63
2021/09/02 09:44:26;;;;;;;6.60;3.65;;;;;;;14.96;75.95;99066.61;1740963;82;20913;-63
2021/09/02 09:47:14;;;;;;;9.53;3.05;;;;;;;14.70;74.16;99043.78;1740980;82;20942;-61
2021/09/02 09:49:51;;;;;;;9.67;3.73;;;;;;;14.52;76.78;99081.82;1741435;82;21352;-63
2021/09/02 09:52:28;;;;;;;8.18;3.87;;;;;;;14.34;74.29;99061.27;1740986;82;21005;-62
2021/09/02 09:55:18;;;;;;;7.60;3.12;;;;;;;15.03;74.89;99071.64;1740880;82;21150;-62
2021/09/02 09:57:46;;;;;;;7.55;3.17;;;;;;;15.62;70.84;99062.53;1740954;82;20937;-63
2021/09/02 10:00:19;;;;;;;7.15;3.52;;;;;;;15.71;69.73;99083.77;1740828;82;20859;-63
2021/09/02 10:02:48;;;;;;;4.80;2.55;;;;;;;15.65;71.02;99091.16;1740438;81;21096;-64
2021/09/02 10:05:17;;;;;;;7.83;3.08;;;;;;;15.72;69.70;99090.77;1742512;80;20993;-62
2021/09/02 10:07:46;;;;;;;11.30;2.85;;;;;;;15.76;67.35;99086.93;1744242;81;21208;-62
2021/09/02 10:10:15;;;;;;;5.83;2.85;;;;;;;15.92;69.88;99088.78;1745016;81;21472;-62
2021/09/02 10:12:45;;;;;;;9.93;3.60;;;;;;;16.32;67.86;99095.86;1748247;82;21342;-66
2021/09/02 10:15:16;;;;;;;6.72;2.83;;;;;;;16.83;63.66;99088.80;1748319;82;20847;-62
2021/09/02 10:17:45;;;;;;;12.82;3.02;;;;;;;16.96;60.58;99086.34;1748290;82;20914;-62
2021/09/02 10:20:20;;;;;;;5.67;2.67;;;;;;;16.87;61.11;99088.41;1748328;81;20957;-65
2021/09/02 10:23:00;;;;;;;6.35;2.47;;;;;;;17.16;57.51;99057.38;1747449;82;20982;-63
2021/09/02 10:25:37;;;;;;;8.23;2.98;;;;;;;16.74;58.44;99087.09;1748166;82;20969;-63
2021/09/02 10:28:16;;;;;;;8.68;2.60;;;;;;;16.89;58.82;99080.78;1748243;82;21005;-64
2021/09/02 10:30:45;;;;;;;9.00;2.55;;;;;;;17.59;57.56;99082.61;1747267;82;21358;-64
2021/09/02 10:33:41;;;;;;;4.03;2.40;;;;;;;18.03;54.71;99092.30;1748354;82;21171;-65
2021/09/02 10:36:17;;;;;;;8.10;2.98;;;;;;;17.18;54.15;99092.33;1747959;82;20926;-60
2021/09/02 10:38:53;;;;;;;8.30;2.92;;;;;;;16.66;56.63;99072.36;1748402;82;20902;-63
2021/09/02 10:41:40;;;;;;;5.97;2.67;;;;;;;16.44;58.59;99079.33;1748135;82;21992;-62
2021/09/02 10:44:10;;;;;;;8.03;2.80;;;;;;;16.15;58.42;99087.00;1748329;82;20875;-62
2021/09/02 10:46:43;;;;;;;5.25;2.70;;;;;;;15.76;59.70;99089.08;1743226;81;21865;-67
2021/09/02 10:49:31;;;;;;;6.40;2.98;;;;;;;15.56;60.15;99040.19;1734320;82;20886;-64
2021/09/02 10:52:05;;;;;;;4.20;2.40;;;;;;;15.23;64.80;99095.63;1748097;81;20908;-62
2021/09/02 10:54:38;;;;;;;6.37;2.65;;;;;;;15.41;66.67;99078.34;1772700;80;20936;-63
2021/09/02 10:57:11;;;;;;;7.20;2.47;;;;;;;15.35;65.64;99105.99;1757083;81;20997;-63
2021/09/02 10:59:52;;;;;;;7.47;3.15;;;;;;;15.90;62.70;99090.98;1757583;81;21136;-63
2021/09/02 11:02:28;;;;;;;6.47;2.55;;;;;;;16.28;60.10;99109.19;1766554;80;20821;-63
2021/09/02 11:05:00;;;;;;;10.18;3.08;;;;;;;16.54;61.51;99111.38;1785512;80;20913;-67
2021/09/02 11:07:43;;;;;;;6.85;3.05;;;;;;;16.95;59.17;99113.19;1762577;80;20914;-62
2021/09/02 11:10:19;;;;;;;6.17;2.83;;;;;;;16.83;58.43;99116.44;1758051;81;21424;-63
2021/09/02 11:12:47;;;;;;;5.05;2.70;;;;;;;16.49;57.61;99124.48;1766120;81;21135;-62
2021/09/02 11:15:22;;;;;;;9.38;2.50;;;;;;;16.12;58.68;99122.24;1766173;81;20922;-63
2021/09/02 11:18:01;;;;;;;7.85;2.87;;;;;;;15.65;60.52;99111.44;1760569;81;20903;-61
2021/09/02 11:20:30;;;;;;;5.22;2.47;;;;;;;15.44;63.00;99116.39;1766049;81;20889;-65
2021/09/02 11:23:10;;;;;;;6.45;2.98;;;;;;;15.07;64.75;99142.95;1766453;81;21407;-66
2021/09/02 11:25:51;;;;;;;7.20;3.20;;;;;;;14.01;69.22;99143.17;1764800;81;21118;-62
2021/09/02 11:28:22;;;;;;;11.08;3.37;;;;;;;12.99;96.93;99161.80;1766328;81;20914;-60
2021/09/02 11:30:50;;;;;;;7.53;3.67;;;;;;;11.96;100.00;99155.23;1766344;81;20867;-61
2021/09/02 11:33:16;;;;;;;6.00;3.50;;;;;;;11.63;100.00;99144.48;1766626;81;20965;-61